Time;durP1;ratioP1;P1;durP2;ratioP2;P2;SDS_P1;SDS_P2;PMS_P1;PMS_P2;Temp;Humidity;BMP_temperature;BMP_pressure;BME280_temperature;BME280_humidity;BME280_pressure;Samples;Min_cycle;Max_cycle;Signal;HPM_P1;HPM_P2
2023/02/22 00:00:49;;;;;;;2.93;2.17;;;5.80;98.00;;;;;;5094628;28;20485;-92
2023/02/22 00:03:23;;;;;;;7.37;2.70;;;5.70;98.00;;;;;;5095157;28;20462;-92
2023/02/22 00:05:53;;;;;;;2.40;2.20;;;5.40;98.00;;;;;;5094408;28;20533;-92
2023/02/22 00:08:23;;;;;;;2.97;2.07;;;5.30;98.00;;;;;;5094048;28;20577;-92
2023/02/22 00:10:51;;;;;;;3.20;2.40;;;5.20;98.00;;;;;;5094606;28;20854;-92
2023/02/22 00:13:21;;;;;;;2.90;2.50;;;5.20;98.00;;;;;;5094566;28;20520;-92
2023/02/22 00:15:52;;;;;;;4.00;2.73;;;5.20;98.00;;;;;;5094491;28;20544;-92
2023/02/22 00:18:20;;;;;;;4.60;3.53;;;5.10;98.00;;;;;;5094701;28;20467;-92
2023/02/22 00:20:47;;;;;;;5.07;2.87;;;5.00;98.00;;;;;;5094547;28;20482;-92
2023/02/22 00:23:19;;;;;;;7.33;3.37;;;5.00;98.00;;;;;;5094623;28;20461;-92
2023/02/22 00:25:47;;;;;;;5.23;3.23;;;5.00;98.00;;;;;;5094223;28;20477;-92
2023/02/22 00:28:15;;;;;;;6.60;3.13;;;5.00;98.00;;;;;;5094315;28;20467;-92
2023/02/22 00:30:43;;;;;;;4.83;3.20;;;5.10;98.00;;;;;;5094423;28;20978;-91
2023/02/22 00:33:12;;;;;;;4.33;2.40;;;5.10;98.00;;;;;;5094180;28;20842;-92
2023/02/22 00:35:40;;;;;;;4.83;3.00;;;5.10;98.00;;;;;;5094458;28;20452;-92
2023/02/22 00:38:08;;;;;;;3.63;2.80;;;5.10;98.00;;;;;;5094288;28;20492;-92
2023/02/22 00:40:36;;;;;;;2.53;2.00;;;5.10;98.00;;;;;;5094293;28;20506;-92
2023/02/22 00:43:05;;;;;;;4.10;2.10;;;5.10;98.00;;;;;;5094446;28;20521;-92
2023/02/22 00:45:36;;;;;;;3.40;2.27;;;5.10;98.00;;;;;;5093794;28;20485;-92
2023/02/22 00:48:04;;;;;;;4.50;2.60;;;5.30;98.00;;;;;;5094095;28;20867;-91
2023/02/22 00:50:33;;;;;;;4.90;2.93;;;5.30;98.00;;;;;;5093649;28;20483;-92
2023/02/22 00:53:08;;;;;;;4.30;3.20;;;5.30;98.00;;;;;;5094265;28;20512;-92
2023/02/22 00:55:37;;;;;;;4.60;2.47;;;5.30;98.00;;;;;;5093860;28;20478;-92
2023/02/22 00:58:06;;;;;;;2.87;2.37;;;5.20;98.00;;;;;;5094412;28;20813;-92
2023/02/22 01:00:35;;;;;;;3.30;2.47;;;5.30;98.00;;;;;;5093739;28;20905;-92
2023/02/22 01:03:10;;;;;;;3.97;1.73;;;5.40;98.00;;;;;;5093988;28;20463;-92
2023/02/22 01:05:39;;;;;;;2.90;2.10;;;5.20;98.00;;;;;;5093686;28;20476;-92
2023/02/22 01:08:09;;;;;;;9.83;3.13;;;4.90;98.00;;;;;;5093997;28;20522;-92
2023/02/22 01:10:37;;;;;;;4.03;2.53;;;4.70;98.00;;;;;;5093547;28;20496;-91
2023/02/22 01:13:07;;;;;;;4.77;2.90;;;4.60;98.00;;;;;;5093764;28;20462;-92
2023/02/22 01:15:36;;;;;;;5.67;3.50;;;4.50;98.00;;;;;;5093338;28;20460;-92
2023/02/22 01:18:05;;;;;;;4.07;2.03;;;4.40;98.00;;;;;;5093671;28;20466;-92
2023/02/22 01:20:32;;;;;;;20.90;2.73;;;4.40;98.00;;;;;;5074918;28;20483;-92
2023/02/22 01:23:05;;;;;;;3.60;2.53;;;4.60;98.00;;;;;;5093483;28;20466;-92
2023/02/22 01:25:32;;;;;;;6.70;2.93;;;4.60;98.00;;;;;;5092941;28;20472;-91
2023/02/22 01:28:01;;;;;;;5.10;3.60;;;4.50;98.00;;;;;;5093330;28;20458;-92
2023/02/22 01:30:32;;;;;;;4.77;2.23;;;4.30;98.00;;;;;;5093139;28;20511;-92
2023/02/22 01:32:59;;;;;;;3.00;2.33;;;4.20;98.00;;;;;;5093278;28;20461;-92
2023/02/22 01:35:29;;;;;;;3.33;2.10;;;4.30;98.00;;;;;;5093072;28;20480;-91
2023/02/22 01:38:04;;;;;;;4.23;2.13;;;4.40;98.00;;;;;;5093163;28;20459;-92
2023/02/22 01:40:33;;;;;;;4.60;2.97;;;4.60;98.00;;;;;;5092476;28;20482;-92
2023/02/22 01:43:03;;;;;;;4.03;2.90;;;4.50;98.00;;;;;;5093227;28;20472;-92
2023/02/22 01:45:47;;;;;;;5.30;2.87;;;4.30;98.00;;;;;;5092862;28;20897;-92
2023/02/22 01:48:27;;;;;;;4.53;2.47;;;4.50;98.00;;;;;;5074296;28;20474;-92
2023/02/22 01:50:59;;;;;;;4.93;2.87;;;4.40;98.00;;;;;;5092883;28;20487;-92
2023/02/22 01:53:47;;;;;;;3.43;2.33;;;4.30;98.00;;;;;;5092569;28;20451;-92
2023/02/22 01:56:25;;;;;;;2.83;2.03;;;4.10;98.00;;;;;;5092680;28;20830;-92
2023/02/22 01:58:56;;;;;;;3.27;2.27;;;4.20;98.00;;;;;;5092695;28;20975;-92
2023/02/22 02:01:25;;;;;;;2.80;2.20;;;4.30;98.00;;;;;;5092777;28;20457;-92
2023/02/22 02:03:56;;;;;;;2.63;2.07;;;4.30;98.00;;;;;;5092541;28;20542;-91
2023/02/22 02:06:36;;;;;;;3.70;2.60;;;4.20;98.00;;;;;;5092529;28;20489;-92
2023/02/22 02:09:12;;;;;;;6.40;2.23;;;4.20;98.00;;;;;;5092540;28;20496;-92
2023/02/22 02:11:42;;;;;;;2.47;2.07;;;4.10;98.00;;;;;;5092877;28;20459;-91
2023/02/22 02:14:11;;;;;;;9.00;3.47;;;4.20;98.00;;;;;;5092905;28;20552;-92
2023/02/22 02:16:43;;;;;;;6.17;2.50;;;4.30;98.00;;;;;;5092470;28;20511;-91
2023/02/22 02:19:20;;;;;;;2.27;2.07;;;4.40;98.00;;;;;;5092551;28;20478;-92
2023/02/22 02:22:19;;;;;;;3.83;2.43;;;4.20;98.00;;;;;;5092497;28;20529;-91
2023/02/22 02:25:42;;;;;;;2.27;2.00;;;4.00;98.00;;;;;;5092663;28;20539;-92
2023/02/22 02:28:53;;;;;;;5.30;3.00;;;3.90;98.00;;;;;;5092662;28;20456;-91
2023/02/22 02:32:03;;;;;;;2.53;2.10;;;4.00;98.00;;;;;;5055297;28;20474;-92
2023/02/22 02:34:39;;;;;;;6.40;2.77;;;4.10;98.00;;;;;;5080961;28;20455;-91
2023/02/22 02:37:11;;;;;;;8.50;3.90;;;4.20;98.00;;;;;;5097505;28;20459;-92
2023/02/22 02:39:49;;;;;;;2.90;2.63;;;4.30;98.00;;;;;;5097265;28;20486;-92
2023/02/22 02:42:22;;;;;;;5.33;2.87;;;4.20;98.00;;;;;;5096522;28;20546;-91
2023/02/22 02:44:55;;;;;;;5.43;2.87;;;4.30;98.00;;;;;;5096241;28;20455;-92
2023/02/22 02:47:28;;;;;;;4.73;2.20;;;4.20;98.00;;;;;;5096206;28;20565;-91
2023/02/22 02:50:02;;;;;;;3.70;2.30;;;4.10;98.00;;;;;;5095977;28;20882;-91
2023/02/22 02:52:33;;;;;;;7.23;2.80;;;4.10;98.00;;;;;;5096222;28;20827;-91
2023/02/22 02:55:02;;;;;;;2.37;1.83;;;4.00;98.00;;;;;;5096264;28;20485;-91
2023/02/22 02:57:37;;;;;;;6.00;2.30;;;4.10;98.00;;;;;;5096626;28;20452;-91
2023/02/22 03:00:21;;;;;;;1.90;1.80;;;4.10;98.00;;;;;;5096442;28;20590;-91
2023/02/22 03:02:58;;;;;;;2.80;2.10;;;4.00;98.00;;;;;;5096900;28;20562;-92
2023/02/22 03:05:44;;;;;;;2.77;2.10;;;4.10;98.00;;;;;;5097593;28;20467;-91
2023/02/22 03:08:18;;;;;;;3.97;2.40;;;4.00;98.00;;;;;;5097636;28;20524;-91
2023/02/22 03:10:52;;;;;;;3.67;2.00;;;3.80;98.00;;;;;;5097328;28;20487;-91
2023/02/22 03:13:29;;;;;;;5.17;2.70;;;3.70;98.00;;;;;;5096491;28;20468;-91
2023/02/22 03:16:08;;;;;;;2.60;2.10;;;3.80;98.00;;;;;;5095493;28;20463;-91
2023/02/22 03:18:44;;;;;;;4.20;2.20;;;3.80;98.00;;;;;;5095808;28;20993;-91
2023/02/22 03:21:24;;;;;;;3.10;2.20;;;3.80;98.00;;;;;;5095357;28;20459;-91
2023/02/22 03:24:01;;;;;;;8.20;2.57;;;3.70;98.00;;;;;;5095708;28;20535;-91
2023/02/22 03:26:34;;;;;;;3.00;2.50;;;3.80;98.00;;;;;;5095208;28;20478;-91
2023/02/22 03:29:04;;;;;;;4.50;2.30;;;3.80;98.00;;;;;;5095781;28;20492;-91
2023/02/22 03:31:36;;;;;;;4.93;2.10;;;3.70;98.00;;;;;;5095704;28;20542;-91
2023/02/22 03:34:09;;;;;;;2.70;2.40;;;3.60;98.00;;;;;;5095663;28;20462;-91
2023/02/22 03:36:42;;;;;;;5.13;2.10;;;3.60;98.00;;;;;;5095508;28;20449;-91
2023/02/22 03:39:15;;;;;;;6.17;2.40;;;3.80;98.00;;;;;;5095502;28;20581;-92
2023/02/22 03:41:50;;;;;;;5.27;2.60;;;3.90;98.00;;;;;;5095673;28;20470;-91
2023/02/22 03:44:23;;;;;;;7.17;2.73;;;3.70;98.00;;;;;;5094124;28;20450;-91
2023/02/22 03:46:52;;;;;;;4.17;1.97;;;3.70;98.00;;;;;;5094903;28;20478;-91
2023/02/22 03:49:29;;;;;;;3.10;2.30;;;3.60;98.00;;;;;;5094659;28;20486;-91
2023/02/22 03:51:59;;;;;;;3.23;2.33;;;3.80;98.00;;;;;;5095117;28;20460;-92
2023/02/22 03:54:27;;;;;;;3.20;2.20;;;3.90;98.00;;;;;;5094983;28;20506;-91
2023/02/22 03:56:57;;;;;;;2.90;2.10;;;3.80;98.00;;;;;;5095185;28;20493;-91
2023/02/22 03:59:26;;;;;;;3.27;2.00;;;3.70;98.00;;;;;;5095011;28;20490;-91
2023/02/22 04:01:54;;;;;;;4.00;2.73;;;3.60;98.00;;;;;;5094726;28;20448;-91
2023/02/22 04:04:22;;;;;;;2.63;1.83;;;3.50;98.00;;;;;;5094986;28;20455;-91
2023/02/22 04:06:50;;;;;;;3.03;2.10;;;3.50;98.00;;;;;;5094852;28;20945;-91
2023/02/22 04:09:21;;;;;;;8.63;2.33;;;3.30;98.00;;;;;;5095213;28;20488;-91
2023/02/22 04:11:49;;;;;;;3.73;3.13;;;3.40;98.00;;;;;;5094955;28;20459;-91
2023/02/22 04:14:16;;;;;;;3.43;2.30;;;3.40;98.00;;;;;;5094918;28;20475;-91
2023/02/22 04:16:43;;;;;;;8.50;3.00;;;3.30;98.00;;;;;;5094415;28;20543;-91
2023/02/22 04:19:12;;;;;;;4.87;2.53;;;3.50;98.00;;;;;;5094435;28;20493;-91
2023/02/22 04:21:39;;;;;;;5.07;2.93;;;3.50;98.00;;;;;;5094903;28;20483;-91
2023/02/22 04:24:07;;;;;;;5.03;2.20;;;3.30;98.00;;;;;;5094549;28;20497;-91
2023/02/22 04:26:41;;;;;;;4.30;3.03;;;3.30;98.00;;;;;;5094618;28;20468;-91
2023/02/22 04:29:08;;;;;;;3.37;2.23;;;3.30;98.00;;;;;;5093850;28;20519;-91
2023/02/22 04:31:36;;;;;;;4.47;2.50;;;3.30;98.00;;;;;;5094668;28;20453;-91
2023/02/22 04:34:03;;;;;;;4.17;2.70;;;3.40;98.00;;;;;;5094397;28;20464;-91
2023/02/22 04:36:31;;;;;;;2.83;1.93;;;3.40;98.00;;;;;;5094478;28;20482;-91
2023/02/22 04:38:59;;;;;;;3.67;1.83;;;3.50;98.00;;;;;;5075969;28;20490;-91
2023/02/22 04:41:26;;;;;;;9.50;2.07;;;3.40;98.00;;;;;;5094395;28;20434;-91
2023/02/22 04:43:55;;;;;;;2.83;2.53;;;3.30;98.00;;;;;;5094303;28;20463;-91
2023/02/22 04:46:22;;;;;;;2.50;1.93;;;3.30;98.00;;;;;;5093900;28;20439;-91
2023/02/22 04:48:49;;;;;;;7.43;2.93;;;3.30;98.00;;;;;;5094187;28;20439;-91
2023/02/22 04:51:18;;;;;;;5.73;3.07;;;3.20;98.00;;;;;;5094097;28;20584;-91
2023/02/22 04:53:46;;;;;;;2.60;1.73;;;3.30;98.00;;;;;;5094633;28;20511;-92
2023/02/22 04:56:17;;;;;;;3.90;2.40;;;3.30;98.00;;;;;;5094407;28;20466;-92
2023/02/22 04:58:44;;;;;;;4.90;2.47;;;3.40;98.00;;;;;;5094551;28;20882;-92
2023/02/22 05:01:26;;;;;;;4.23;2.30;;;3.40;98.00;;;;;;5094790;28;20459;-91
2023/02/22 05:03:53;;;;;;;3.13;2.50;;;3.20;98.00;;;;;;5093624;28;20466;-91
2023/02/22 05:06:20;;;;;;;4.07;2.03;;;3.10;98.00;;;;;;5093619;28;20469;-91
2023/02/22 05:08:47;;;;;;;3.57;2.17;;;3.00;98.00;;;;;;5093524;28;20515;-91
2023/02/22 05:11:15;;;;;;;3.93;2.77;;;3.00;98.00;;;;;;5093434;28;20485;-91
2023/02/22 05:13:42;;;;;;;2.87;2.20;;;3.10;98.00;;;;;;5093515;28;20515;-91
2023/02/22 05:16:09;;;;;;;3.40;2.40;;;3.10;98.00;;;;;;5093567;28;20465;-91
2023/02/22 05:18:38;;;;;;;5.93;1.90;;;2.90;98.00;;;;;;5093351;28;20963;-91
2023/02/22 05:21:06;;;;;;;4.17;2.10;;;3.00;98.00;;;;;;5093639;28;20514;-91
2023/02/22 05:23:34;;;;;;;3.60;2.53;;;3.20;98.00;;;;;;5093626;28;20463;-91
2023/02/22 05:26:01;;;;;;;3.70;2.60;;;3.00;98.00;;;;;;5093375;28;20548;-91
2023/02/22 05:28:28;;;;;;;4.40;3.10;;;3.00;98.00;;;;;;5093197;28;20479;-90
2023/02/22 05:30:56;;;;;;;4.57;3.13;;;3.00;98.00;;;;;;5093533;28;20486;-91
2023/02/22 05:33:23;;;;;;;4.20;2.43;;;3.00;98.00;;;;;;5093256;28;20513;-91
2023/02/22 05:35:54;;;;;;;5.33;2.83;;;2.80;98.00;;;;;;5093510;28;20980;-91
2023/02/22 05:38:22;;;;;;;8.47;2.97;;;2.80;98.00;;;;;;5093105;28;20461;-91
2023/02/22 05:40:50;;;;;;;3.40;2.37;;;2.90;98.00;;;;;;5092970;28;20573;-91
2023/02/22 05:43:17;;;;;;;2.20;1.93;;;2.80;98.00;;;;;;5093005;28;20458;-91
2023/02/22 05:45:47;;;;;;;3.10;2.10;;;2.70;98.00;;;;;;5093338;28;20462;-91
2023/02/22 05:48:14;;;;;;;4.10;2.47;;;2.80;98.00;;;;;;5092635;28;20507;-90
2023/02/22 05:50:42;;;;;;;5.20;3.43;;;2.80;98.00;;;;;;5092594;28;20487;-91
2023/02/22 05:53:11;;;;;;;2.17;1.80;;;2.80;98.00;;;;;;5092913;28;20510;-90
2023/02/22 05:55:39;;;;;;;5.30;3.00;;;2.90;98.00;;;;;;5092363;28;20449;-91
2023/02/22 05:58:06;;;;;;;6.13;3.27;;;2.90;98.00;;;;;;5092678;28;20457;-91
2023/02/22 06:00:33;;;;;;;5.30;2.70;;;2.90;98.00;;;;;;5092289;28;20482;-90
2023/02/22 06:03:02;;;;;;;9.40;2.97;;;2.80;98.00;;;;;;5092552;28;20453;-90
2023/02/22 06:05:30;;;;;;;5.70;3.07;;;2.80;98.00;;;;;;5091888;28;20530;-91
2023/02/22 06:07:58;;;;;;;3.77;2.30;;;2.90;98.00;;;;;;5092168;28;20485;-91
2023/02/22 06:10:27;;;;;;;3.43;2.70;;;2.90;98.00;;;;;;5093395;28;20478;-90
2023/02/22 06:12:55;;;;;;;3.00;2.60;;;2.90;98.00;;;;;;5096494;28;20455;-91
2023/02/22 06:15:24;;;;;;;3.57;2.50;;;2.80;98.00;;;;;;5095673;28;20499;-90
2023/02/22 06:17:52;;;;;;;4.30;2.83;;;2.90;98.00;;;;;;5096044;28;20951;-91
2023/02/22 06:20:21;;;;;;;4.60;2.37;;;3.00;98.00;;;;;;5092728;28;20832;-90
2023/02/22 06:22:48;;;;;;;2.73;1.90;;;3.00;98.00;;;;;;5092378;28;20458;-90
2023/02/22 06:25:17;;;;;;;3.30;2.23;;;2.90;98.00;;;;;;5092588;28;20441;-90
2023/02/22 06:27:45;;;;;;;3.33;2.10;;;3.00;98.00;;;;;;5094776;28;20793;-90
2023/02/22 06:30:14;;;;;;;4.37;2.60;;;3.10;98.00;;;;;;5092153;28;21029;-90
2023/02/22 06:32:41;;;;;;;2.83;2.10;;;3.10;98.00;;;;;;5092239;28;20943;-91
2023/02/22 06:35:09;;;;;;;5.27;3.00;;;2.90;98.00;;;;;;5092876;28;20521;-91
2023/02/22 06:37:37;;;;;;;6.53;2.80;;;2.90;98.00;;;;;;5092602;28;20869;-90
2023/02/22 06:40:05;;;;;;;7.53;3.13;;;2.80;98.00;;;;;;5092392;28;20913;-90
2023/02/22 06:42:32;;;;;;;5.27;2.77;;;2.90;98.00;;;;;;5092073;28;20436;-91
2023/02/22 06:45:00;;;;;;;2.70;2.40;;;2.90;98.00;;;;;;5092292;28;20448;-91
2023/02/22 06:47:27;;;;;;;4.23;2.40;;;2.80;98.00;;;;;;5091925;28;20855;-90
2023/02/22 06:49:55;;;;;;;3.60;2.67;;;2.80;98.00;;;;;;5091858;28;20471;-90
2023/02/22 06:52:22;;;;;;;2.97;2.03;;;2.80;98.00;;;;;;5091815;28;20466;-90
2023/02/22 06:54:50;;;;;;;3.97;2.93;;;2.80;98.00;;;;;;5091833;28;20468;-91
2023/02/22 06:57:17;;;;;;;4.40;1.97;;;2.90;98.00;;;;;;5091773;28;20461;-90
2023/02/22 06:59:45;;;;;;;3.67;2.70;;;2.90;98.00;;;;;;5091728;28;20485;-90
2023/02/22 07:02:14;;;;;;;2.93;2.60;;;2.90;98.00;;;;;;5091776;28;20952;-89
2023/02/22 07:04:42;;;;;;;4.90;3.00;;;3.00;98.00;;;;;;5091756;28;20477;-89
2023/02/22 07:07:09;;;;;;;7.00;2.80;;;3.10;98.00;;;;;;5090996;28;20458;-89
2023/02/22 07:09:36;;;;;;;4.03;2.30;;;3.10;98.00;;;;;;5091327;28;20489;-89
2023/02/22 07:12:03;;;;;;;3.23;2.47;;;3.10;98.00;;;;;;5091149;28;20463;-88
2023/02/22 07:14:30;;;;;;;4.03;2.93;;;3.10;98.00;;;;;;5091743;28;20465;-89
2023/02/22 07:16:57;;;;;;;4.00;2.50;;;3.30;98.00;;;;;;5091148;28;20465;-89
2023/02/22 07:19:25;;;;;;;4.70;2.77;;;3.40;98.00;;;;;;5094697;28;20477;-89
2023/02/22 07:21:57;;;;;;;6.60;2.93;;;3.40;98.00;;;;;;5076700;28;20544;-89
2023/02/22 07:24:27;;;;;;;4.40;2.60;;;3.50;98.00;;;;;;5094894;28;20948;-88
2023/02/22 07:26:54;;;;;;;4.17;2.53;;;3.60;98.00;;;;;;5094841;28;20452;-88
2023/02/22 07:29:22;;;;;;;5.57;3.60;;;3.80;98.00;;;;;;5094214;28;20494;-89
2023/02/22 07:31:49;;;;;;;10.03;3.50;;;3.90;98.00;;;;;;5094582;28;21089;-89
2023/02/22 07:34:16;;;;;;;4.30;2.53;;;3.90;98.00;;;;;;5094212;28;20485;-89
2023/02/22 07:36:45;;;;;;;7.87;3.07;;;4.00;98.00;;;;;;5093871;28;20463;-88
2023/02/22 07:39:12;;;;;;;5.03;3.53;;;4.10;98.00;;;;;;5094149;28;20487;-88
2023/02/22 07:41:39;;;;;;;8.30;3.13;;;4.20;98.00;;;;;;5094074;28;20945;-88
2023/02/22 07:44:06;;;;;;;3.93;3.07;;;4.30;98.00;;;;;;5094368;28;20464;-87
2023/02/22 07:46:33;;;;;;;5.40;2.33;;;4.40;98.00;;;;;;5093570;28;20465;-88
2023/02/22 07:49:00;;;;;;;5.87;2.97;;;4.50;98.00;;;;;;5093926;28;20533;-89
2023/02/22 07:51:28;;;;;;;3.73;2.70;;;4.60;98.00;;;;;;5094572;28;20528;-91
2023/02/22 07:53:56;;;;;;;6.20;3.57;;;4.60;98.00;;;;;;5094606;28;20548;-91
2023/02/22 07:56:23;;;;;;;3.70;2.60;;;4.70;98.00;;;;;;5094124;28;20939;-90
2023/02/22 07:58:50;;;;;;;5.07;3.50;;;4.90;98.00;;;;;;5094314;28;20461;-91
2023/02/22 08:01:18;;;;;;;7.50;3.40;;;5.00;98.00;;;;;;5094080;28;20461;-91
2023/02/22 08:03:46;;;;;;;6.73;3.57;;;5.10;98.00;;;;;;5094841;28;20454;-91
2023/02/22 08:06:13;;;;;;;3.50;2.67;;;5.20;98.00;;;;;;5093735;28;20474;-91
2023/02/22 08:08:41;;;;;;;5.60;2.33;;;5.30;98.00;;;;;;5093936;28;21049;-91
2023/02/22 08:11:10;;;;;;;4.73;2.80;;;5.30;98.00;;;;;;5093937;28;20517;-91
2023/02/22 08:13:44;;;;;;;3.30;2.70;;;5.30;98.00;;;;;;5094078;28;20462;-91
2023/02/22 08:16:11;;;;;;;3.97;2.67;;;5.40;98.00;;;;;;5094246;28;20459;-92
2023/02/22 08:18:39;;;;;;;5.07;2.73;;;5.50;98.00;;;;;;5094152;28;20880;-90
2023/02/22 08:21:10;;;;;;;5.37;3.20;;;5.60;98.00;;;;;;5093885;28;20463;-91
2023/02/22 08:23:40;;;;;;;4.03;2.90;;;5.70;98.00;;;;;;5094038;28;20469;-91
2023/02/22 08:26:14;;;;;;;4.40;2.90;;;5.70;98.00;;;;;;5093456;28;20477;-91
2023/02/22 08:28:42;;;;;;;3.47;2.03;;;5.80;98.00;;;;;;5092814;28;20527;-92
2023/02/22 08:31:09;;;;;;;4.87;2.67;;;6.00;98.00;;;;;;5093730;28;20470;-91
2023/02/22 08:33:36;;;;;;;21.37;2.47;;;6.10;98.00;;;;;;5094247;28;20502;-92
2023/02/22 08:36:05;;;;;;;3.23;2.37;;;6.30;98.00;;;;;;5093974;28;21007;-93
2023/02/22 08:38:32;;;;;;;6.80;3.20;;;6.40;98.00;;;;;;5093575;28;20450;-92
2023/02/22 08:41:00;;;;;;;5.20;2.80;;;6.50;98.00;;;;;;5093259;28;20515;-91
2023/02/22 08:43:28;;;;;;;3.20;2.30;;;6.70;98.00;;;;;;5086826;28;20466;-91
2023/02/22 08:45:55;;;;;;;4.10;2.50;;;6.90;98.00;;;;;;5092038;28;20465;-90
2023/02/22 08:48:22;;;;;;;6.30;3.37;;;7.10;98.00;;;;;;5092292;28;20486;-91
2023/02/22 08:50:50;;;;;;;5.17;2.97;;;7.20;98.00;;;;;;5092573;28;20527;-91
2023/02/22 08:53:17;;;;;;;5.97;3.37;;;7.20;98.00;;;;;;5092601;28;20463;-91
2023/02/22 08:55:45;;;;;;;6.20;3.20;;;7.50;98.00;;;;;;5092728;28;20527;-90
2023/02/22 08:58:12;;;;;;;6.50;3.60;;;7.70;98.00;;;;;;5092404;28;20464;-91
2023/02/22 09:00:43;;;;;;;5.50;3.73;;;7.80;98.00;;;;;;5092526;28;20474;-91
2023/02/22 09:03:12;;;;;;;14.40;3.90;;;7.90;98.00;;;;;;5091927;28;20468;-91
2023/02/22 09:05:39;;;;;;;6.80;3.50;;;8.00;98.00;;;;;;5091812;28;20885;-92
2023/02/22 09:08:06;;;;;;;9.20;4.40;;;8.10;98.00;;;;;;5089529;28;20484;-91
2023/02/22 09:14:29;;;;;;;6.23;3.60;;;8.40;98.00;;;;;;4964102;28;20550;-89
2023/02/22 09:17:29;;;;;;;4.80;3.30;;;8.60;98.00;;;;;;5032327;28;20541;-88
2023/02/22 09:19:57;;;;;;;7.00;3.50;;;8.80;98.00;;;;;;5031963;28;20534;-89
2023/02/22 09:23:13;;;;;;;8.13;4.37;;;9.00;98.00;;;;;;5033029;28;20458;-88
2023/02/22 09:29:59;;;;;;;;;;;;;;;;;;;;;
2023/02/22 09:32:28;;;;;;;8.20;3.50;;;9.60;98.00;;;;;;5026055;28;20663;-89
2023/02/22 09:34:55;;;;;;;9.37;4.13;;;9.80;98.00;;;;;;5032057;28;20468;-89
2023/02/22 09:37:35;;;;;;;9.60;4.20;;;10.00;98.00;;;;;;5031386;28;20971;-90
2023/02/22 09:40:30;;;;;;;11.53;4.43;;;10.10;98.00;;;;;;5029491;28;20484;-91
2023/02/22 09:43:35;;;;;;;9.73;4.60;;;10.20;98.00;;;;;;5031682;28;20467;-88
2023/02/22 09:46:17;;;;;;;11.27;4.70;;;10.30;98.00;;;;;;5030929;28;20510;-87
2023/02/22 09:48:57;;;;;;;9.30;4.13;;;10.40;98.00;;;;;;5031447;28;20926;-88
2023/02/22 09:51:28;;;;;;;8.17;4.10;;;10.80;98.00;;;;;;5031208;28;20516;-89
2023/02/22 09:54:00;;;;;;;9.10;3.70;;;10.90;98.00;;;;;;5031759;28;20463;-88
2023/02/22 09:56:34;;;;;;;6.60;3.57;;;11.00;98.00;;;;;;5030675;28;20467;-90
2023/02/22 09:59:10;;;;;;;4.30;2.43;;;11.10;98.00;;;;;;5031988;28;20826;-91
2023/02/22 10:02:23;;;;;;;;;;;;;;;;;;;;;
2023/02/22 10:05:19;;;;;;;9.77;4.10;;;12.10;98.00;;;;;;5030791;28;20453;-89
2023/02/22 10:08:04;;;;;;;10.60;3.80;;;12.50;98.00;;;;;;5031098;28;20545;-89
2023/02/22 10:10:38;;;;;;;8.67;3.50;;;12.60;98.00;;;;;;5032302;28;20574;-88
2023/02/22 10:13:26;;;;;;;10.50;3.93;;;12.60;98.00;;;;;;5032488;28;20848;-88
2023/02/22 10:16:00;;;;;;;5.83;3.60;;;12.70;98.00;;;;;;5031620;28;20482;-88
2023/02/22 10:18:49;;;;;;;10.80;4.37;;;12.70;98.00;;;;;;5031863;28;20858;-88
2023/02/22 10:21:39;;;;;;;12.40;3.70;;;12.60;98.00;;;;;;5032038;28;20482;-88
2023/02/22 10:24:25;;;;;;;12.50;4.00;;;12.50;98.00;;;;;;5032120;28;20547;-89
2023/02/22 10:27:01;;;;;;;12.63;4.67;;;12.40;98.00;;;;;;5032147;28;20461;-88
2023/02/22 10:29:35;;;;;;;7.70;4.20;;;12.50;98.00;;;;;;5032095;28;20497;-88
2023/02/22 10:32:05;;;;;;;7.43;3.90;;;12.60;98.00;;;;;;5031814;28;20464;-87
2023/02/22 10:34:37;;;;;;;12.43;4.20;;;12.70;98.00;;;;;;5032337;28;20475;-88
2023/02/22 10:37:25;;;;;;;10.33;4.40;;;12.90;98.00;;;;;;5032023;28;20452;-88
2023/02/22 10:40:12;;;;;;;9.40;3.70;;;13.10;98.00;;;;;;5032806;28;20536;-90
2023/02/22 10:46:29;;;;;;;6.87;4.27;;;13.40;98.00;;;;;;5029101;28;20440;-89
2023/02/22 11:02:17;;;;;;;10.67;4.73;;;13.70;98.00;;;;;;5079074;22;20478;-62
2023/02/22 11:04:48;;;;;;;8.53;3.83;;;13.90;98.00;;;;;;5074668;28;20451;-62
2023/02/22 11:07:26;;;;;;;9.10;4.17;;;14.00;98.00;;;;;;5074154;28;20827;-62
2023/02/22 11:09:55;;;;;;;8.90;4.30;;;14.20;98.00;;;;;;5057421;28;21012;-62
2023/02/22 11:12:30;;;;;;;8.67;4.00;;;14.20;98.00;;;;;;5074535;28;20460;-62
2023/02/22 11:14:58;;;;;;;8.87;4.30;;;14.50;98.00;;;;;;5074595;28;20457;-62
2023/02/22 11:17:31;;;;;;;7.90;4.07;;;14.70;98.00;;;;;;5232509;22;20551;-62
2023/02/22 11:19:59;;;;;;;8.27;4.10;;;14.80;98.00;;;;;;5014855;28;20453;-62
2023/02/22 11:22:31;;;;;;;16.33;4.23;;;15.00;98.00;;;;;;5014547;28;20909;-62
2023/02/22 11:25:01;;;;;;;7.77;3.73;;;15.30;98.00;;;;;;4996906;28;20519;-62
2023/02/22 11:27:39;;;;;;;6.67;3.40;;;15.40;98.00;;;;;;5014456;28;20461;-62
2023/02/22 11:30:20;;;;;;;5.47;3.00;;;15.40;98.00;;;;;;5014302;28;20497;-62
2023/02/22 11:32:53;;;;;;;5.27;2.97;;;15.40;97.80;;;;;;5014639;28;20462;-62
2023/02/22 11:35:49;;;;;;;7.27;3.60;;;15.70;96.90;;;;;;4997327;28;20462;-62
2023/02/22 11:38:20;;;;;;;6.27;3.03;;;16.00;97.00;;;;;;5014031;28;20556;-62
2023/02/22 11:41:13;;;;;;;11.93;3.97;;;16.30;96.90;;;;;;5013972;28;20463;-62
2023/02/22 11:43:40;;;;;;;9.20;3.93;;;16.50;95.80;;;;;;5014281;28;20525;-62
2023/02/22 11:46:12;;;;;;;8.13;3.40;;;16.60;96.30;;;;;;5012909;28;21161;-62
2023/02/22 11:48:47;;;;;;;6.30;3.40;;;16.80;94.50;;;;;;5014050;28;20482;-62
2023/02/22 11:51:26;;;;;;;7.43;2.73;;;16.80;93.60;;;;;;5013833;28;20519;-62
2023/02/22 11:54:27;;;;;;;7.40;3.07;;;16.80;92.50;;;;;;5013933;28;20542;-62
2023/02/22 11:57:07;;;;;;;7.40;3.50;;;16.70;92.60;;;;;;5013797;28;20521;-62
2023/02/22 11:59:43;;;;;;;6.27;3.00;;;16.70;93.00;;;;;;5013770;28;20477;-62
2023/02/22 12:02:29;;;;;;;9.93;3.40;;;16.60;92.50;;;;;;5014110;28;20459;-62
2023/02/22 12:05:19;;;;;;;9.00;3.47;;;16.60;94.20;;;;;;5012931;28;20459;-62
2023/02/22 12:07:56;;;;;;;7.43;4.07;;;16.40;95.70;;;;;;4996201;28;20478;-62
2023/02/22 12:10:40;;;;;;;11.97;4.70;;;16.00;96.20;;;;;;5013928;28;20494;-62
2023/02/22 12:13:26;;;;;;;8.57;4.10;;;15.90;97.60;;;;;;5014722;28;20703;-62
2023/02/22 12:16:00;;;;;;;6.93;4.07;;;15.80;97.90;;;;;;5014160;28;20473;-62
2023/02/22 12:18:36;;;;;;;14.23;4.50;;;15.70;97.50;;;;;;5014392;28;20963;-62
2023/02/22 12:21:10;;;;;;;10.10;4.20;;;15.60;97.80;;;;;;5014078;28;20532;-62
2023/02/22 12:23:45;;;;;;;9.50;4.20;;;15.80;97.50;;;;;;5013631;28;21111;-62
2023/02/22 12:26:18;;;;;;;7.20;4.03;;;16.00;97.00;;;;;;5013274;28;20474;-62
2023/02/22 12:28:51;;;;;;;7.60;3.87;;;16.20;96.50;;;;;;5019721;28;20492;-62
2023/02/22 12:31:24;;;;;;;9.77;4.20;;;16.30;96.50;;;;;;5022356;28;20463;-62
2023/02/22 12:34:00;;;;;;;8.17;4.20;;;16.30;96.40;;;;;;5021066;28;20752;-62
2023/02/22 12:36:35;;;;;;;8.20;3.80;;;16.30;97.00;;;;;;5020859;28;20550;-62
2023/02/22 12:39:12;;;;;;;9.27;4.07;;;16.40;98.00;;;;;;4993710;28;20475;-62
2023/02/22 12:41:45;;;;;;;18.53;5.20;;;16.50;96.80;;;;;;4994178;28;20507;-62
2023/02/22 12:44:19;;;;;;;9.93;4.67;;;16.50;95.40;;;;;;4994088;28;20837;-62
2023/02/22 12:46:51;;;;;;;8.80;4.47;;;16.40;96.50;;;;;;4993987;28;20471;-62
2023/02/22 12:49:26;;;;;;;10.10;4.87;;;16.70;97.70;;;;;;4993855;28;20491;-62
2023/02/22 12:52:00;;;;;;;10.73;4.77;;;16.90;95.20;;;;;;4993934;28;20464;-62
2023/02/22 12:54:46;;;;;;;8.17;4.10;;;16.90;94.30;;;;;;4977346;28;20464;-62
2023/02/22 12:57:20;;;;;;;7.30;4.10;;;17.00;93.90;;;;;;4993989;28;20526;-62
2023/02/22 12:59:50;;;;;;;10.30;4.53;;;16.90;94.00;;;;;;4993940;28;20487;-62
2023/02/22 13:02:25;;;;;;;8.87;4.23;;;16.80;94.70;;;;;;4993837;28;20460;-62
2023/02/22 13:04:54;;;;;;;8.40;3.90;;;16.80;94.70;;;;;;4993899;28;20884;-62
2023/02/22 13:07:38;;;;;;;9.23;4.13;;;16.80;94.60;;;;;;4993932;28;20471;-62
2023/02/22 13:10:26;;;;;;;6.83;3.60;;;16.80;95.20;;;;;;4994051;28;20524;-62
2023/02/22 13:13:02;;;;;;;8.27;4.40;;;16.60;94.70;;;;;;4993771;28;20987;-62
2023/02/22 13:15:37;;;;;;;10.00;3.80;;;16.40;95.50;;;;;;4993236;28;20462;-62
2023/02/22 13:18:14;;;;;;;7.60;3.53;;;16.40;96.40;;;;;;4993531;28;20798;-64
2023/02/22 13:20:47;;;;;;;15.40;4.37;;;16.70;98.00;;;;;;4993440;28;20510;-66
2023/02/22 13:23:21;;;;;;;12.60;4.40;;;17.40;95.70;;;;;;4993418;28;20487;-64
2023/02/22 13:25:56;;;;;;;10.03;4.97;;;17.80;93.50;;;;;;4993346;28;20460;-63
2023/02/22 13:28:31;;;;;;;7.97;4.13;;;18.10;91.50;;;;;;5030211;28;20450;-63
2023/02/22 13:31:19;;;;;;;6.70;4.10;;;17.80;92.00;;;;;;5032048;28;20481;-62
2023/02/22 13:34:05;;;;;;;10.50;5.33;;;17.60;92.30;;;;;;5030524;28;20466;-63
2023/02/22 13:36:43;;;;;;;9.13;4.40;;;17.20;92.50;;;;;;5032330;28;20469;-62
2023/02/22 13:39:41;;;;;;;6.53;3.57;;;16.90;93.10;;;;;;5015973;28;20865;-62
2023/02/22 13:42:27;;;;;;;6.90;3.53;;;17.00;92.90;;;;;;5032647;28;20462;-62
2023/02/22 13:45:40;;;;;;;8.90;4.10;;;16.80;94.50;;;;;;5032570;28;20455;-62
2023/02/22 13:48:35;;;;;;;14.40;4.20;;;16.50;95.60;;;;;;5032599;28;20461;-62
2023/02/22 13:51:27;;;;;;;9.10;4.30;;;16.60;96.90;;;;;;4992995;28;21098;-63